Time;durP1;ratioP1;P1;durP2;ratioP2;P2;SDS_P1;SDS_P2;PMS_P1;PMS_P2;Temp;Humidity;BMP_temperature;BMP_pressure;BME280_temperature;BME280_humidity;BME280_pressure;Samples;Min_cycle;Max_cycle;Signal;HPM_P1;HPM_P2
2022/09/29 00:01:01;;;;;;;19.47;13.10;;;;;;;;;;4988146;28;20275;-68
2022/09/29 00:03:27;;;;;;;20.43;13.80;;;;;;;;;;4987959;28;20455;-69
2022/09/29 00:05:54;;;;;;;18.23;12.87;;;;;;;;;;4988022;28;20195;-69
2022/09/29 00:08:22;;;;;;;20.73;12.77;;;;;;;;;;4987166;28;20251;-69
2022/09/29 00:10:49;;;;;;;17.07;10.90;;;;;;;;;;4987491;28;20247;-69
2022/09/29 00:13:16;;;;;;;16.73;10.17;;;;;;;;;;4987599;28;20264;-68
2022/09/29 00:15:42;;;;;;;16.03;10.33;;;;;;;;;;4987740;28;20898;-69
2022/09/29 00:18:10;;;;;;;14.90;10.30;;;;;;;;;;4987114;28;20660;-68
2022/09/29 00:20:40;;;;;;;15.43;10.20;;;;;;;;;;4988176;28;20708;-69
2022/09/29 00:23:07;;;;;;;12.73;9.13;;;;;;;;;;4986807;28;20193;-68
2022/09/29 00:25:34;;;;;;;14.83;9.47;;;;;;;;;;4989167;28;20220;-68
2022/09/29 00:28:00;;;;;;;14.23;9.70;;;;;;;;;;4987966;28;20247;-69
2022/09/29 00:30:27;;;;;;;19.07;11.80;;;;;;;;;;4988924;28;20220;-68
2022/09/29 00:32:54;;;;;;;17.47;11.30;;;;;;;;;;4988611;28;20612;-69
2022/09/29 00:35:21;;;;;;;17.87;9.90;;;;;;;;;;4987895;28;20204;-69
2022/09/29 00:37:47;;;;;;;13.47;9.33;;;;;;;;;;4989446;28;20596;-68
2022/09/29 00:40:14;;;;;;;14.60;10.43;;;;;;;;;;4987720;28;20498;-68
2022/09/29 00:42:41;;;;;;;16.27;10.13;;;;;;;;;;4989101;28;20231;-68
2022/09/29 00:45:23;;;;;;;15.30;10.60;;;;;;;;;;4987482;28;20189;-69
2022/09/29 00:48:00;;;;;;;11.63;8.47;;;;;;;;;;4987616;28;20277;-69
2022/09/29 00:50:34;;;;;;;15.77;10.93;;;;;;;;;;4987271;28;20664;-69
2022/09/29 00:53:01;;;;;;;14.53;9.20;;;;;;;;;;4988603;28;20216;-68
2022/09/29 00:55:30;;;;;;;13.07;9.00;;;;;;;;;;4987403;28;20258;-68
2022/09/29 00:57:57;;;;;;;14.80;9.20;;;;;;;;;;4987493;28;20584;-69
2022/09/29 01:00:24;;;;;;;18.43;10.70;;;;;;;;;;4988723;28;20482;-69
2022/09/29 01:02:51;;;;;;;15.43;9.90;;;;;;;;;;4987728;28;20197;-68
2022/09/29 01:05:19;;;;;;;15.80;9.73;;;;;;;;;;4987262;28;20943;-69
2022/09/29 01:07:46;;;;;;;13.40;9.20;;;;;;;;;;4985699;28;20451;-68
2022/09/29 01:10:13;;;;;;;14.77;9.00;;;;;;;;;;4987602;28;20194;-69
2022/09/29 01:12:40;;;;;;;11.67;8.53;;;;;;;;;;4988556;28;21040;-68
2022/09/29 01:15:07;;;;;;;12.40;8.53;;;;;;;;;;4985870;28;20456;-69
2022/09/29 01:17:34;;;;;;;15.80;8.60;;;;;;;;;;4988553;28;20465;-68
2022/09/29 01:20:03;;;;;;;11.87;8.93;;;;;;;;;;4988305;28;20985;-69
2022/09/29 01:22:30;;;;;;;14.57;9.17;;;;;;;;;;4972368;28;20188;-68
2022/09/29 01:25:01;;;;;;;13.17;8.90;;;;;;;;;;4987535;28;20192;-69
2022/09/29 01:27:43;;;;;;;18.53;9.80;;;;;;;;;;4972868;28;20268;-68
2022/09/29 01:30:14;;;;;;;13.10;8.90;;;;;;;;;;4992016;28;20224;-68
2022/09/29 01:32:41;;;;;;;15.53;8.73;;;;;;;;;;4991003;28;20576;-68
2022/09/29 01:35:07;;;;;;;13.73;8.83;;;;;;;;;;4991685;28;20482;-68
2022/09/29 01:37:38;;;;;;;11.40;8.13;;;;;;;;;;4991959;28;20851;-68
2022/09/29 01:40:09;;;;;;;15.60;9.80;;;;;;;;;;4989421;28;20268;-69
2022/09/29 01:42:39;;;;;;;12.93;9.20;;;;;;;;;;4991805;28;20467;-68
2022/09/29 01:45:14;;;;;;;12.23;8.23;;;;;;;;;;4991351;28;20217;-68
2022/09/29 01:47:48;;;;;;;14.53;8.73;;;;;;;;;;4974737;28;20483;-68
2022/09/29 01:50:20;;;;;;;13.10;8.70;;;;;;;;;;4974270;28;20444;-69
2022/09/29 01:52:48;;;;;;;11.70;8.10;;;;;;;;;;4991442;28;20902;-68
2022/09/29 01:55:16;;;;;;;12.97;8.70;;;;;;;;;;4990247;28;20483;-69
2022/09/29 01:58:09;;;;;;;12.83;8.87;;;;;;;;;;4974404;28;20471;-68
2022/09/29 02:00:40;;;;;;;14.07;8.87;;;;;;;;;;4990580;28;20319;-68
2022/09/29 02:03:25;;;;;;;14.47;9.37;;;;;;;;;;4990108;28;20279;-68
2022/09/29 02:05:54;;;;;;;11.40;8.37;;;;;;;;;;4989821;28;20467;-68
2022/09/29 02:08:37;;;;;;;13.73;8.67;;;;;;;;;;4975321;28;20257;-68
2022/09/29 02:11:05;;;;;;;14.20;9.10;;;;;;;;;;4989818;28;20483;-69
2022/09/29 02:13:34;;;;;;;16.13;9.27;;;;;;;;;;4990833;28;20428;-69
2022/09/29 02:16:01;;;;;;;15.60;8.70;;;;;;;;;;4988149;28;20455;-68
2022/09/29 02:18:29;;;;;;;13.47;8.97;;;;;;;;;;4989507;28;20455;-69
2022/09/29 02:20:56;;;;;;;13.97;8.90;;;;;;;;;;4990083;28;20734;-68
2022/09/29 02:23:22;;;;;;;14.03;9.67;;;;;;;;;;4990330;28;20878;-68
2022/09/29 02:25:49;;;;;;;13.60;8.23;;;;;;;;;;4988917;28;20452;-68
2022/09/29 02:28:16;;;;;;;13.83;9.17;;;;;;;;;;4974857;28;20675;-68
2022/09/29 02:30:43;;;;;;;13.27;8.77;;;;;;;;;;4989310;28;20197;-69
2022/09/29 02:33:17;;;;;;;12.07;8.30;;;;;;;;;;4989954;28;20585;-68
2022/09/29 02:35:45;;;;;;;12.00;8.57;;;;;;;;;;4990395;28;20451;-68
2022/09/29 02:38:15;;;;;;;11.83;8.93;;;;;;;;;;4993782;28;20510;-68
2022/09/29 02:40:42;;;;;;;10.50;8.07;;;;;;;;;;4989647;28;20300;-68
2022/09/29 02:43:18;;;;;;;10.93;8.60;;;;;;;;;;4971913;28;20236;-69
2022/09/29 02:45:58;;;;;;;14.57;8.70;;;;;;;;;;4989661;28;20692;-68
2022/09/29 02:48:43;;;;;;;12.33;8.50;;;;;;;;;;4971915;28;20534;-68
2022/09/29 02:51:42;;;;;;;14.80;8.80;;;;;;;;;;4990183;28;20284;-68
2022/09/29 02:54:11;;;;;;;12.90;8.87;;;;;;;;;;4968156;28;20467;-68
2022/09/29 02:56:55;;;;;;;12.57;8.50;;;;;;;;;;4976679;28;20177;-69
2022/09/29 02:59:26;;;;;;;14.47;8.63;;;;;;;;;;4991248;28;20189;-68
2022/09/29 03:01:54;;;;;;;13.23;8.33;;;;;;;;;;4986541;28;20193;-68
2022/09/29 03:04:22;;;;;;;10.70;8.03;;;;;;;;;;4973369;28;21013;-68
2022/09/29 03:06:48;;;;;;;11.43;8.27;;;;;;;;;;4987947;28;20243;-68
2022/09/29 03:09:15;;;;;;;12.47;8.80;;;;;;;;;;4990727;28;20197;-69
2022/09/29 03:11:42;;;;;;;12.57;8.90;;;;;;;;;;4989891;28;20937;-69
2022/09/29 03:14:09;;;;;;;12.73;9.03;;;;;;;;;;4991127;28;20839;-69
2022/09/29 03:16:53;;;;;;;14.87;8.73;;;;;;;;;;4988233;28;20254;-69
2022/09/29 03:19:20;;;;;;;11.57;8.37;;;;;;;;;;4989296;28;20193;-69
2022/09/29 03:22:04;;;;;;;10.33;8.17;;;;;;;;;;4989820;28;20231;-68
2022/09/29 03:24:31;;;;;;;11.20;8.90;;;;;;;;;;4988878;28;20698;-68
2022/09/29 03:26:58;;;;;;;11.03;8.13;;;;;;;;;;4987991;28;20193;-69
2022/09/29 03:29:25;;;;;;;11.30;8.17;;;;;;;;;;4990693;28;20723;-68
2022/09/29 03:31:51;;;;;;;11.57;7.77;;;;;;;;;;4986745;28;20472;-69
2022/09/29 03:34:18;;;;;;;12.33;9.27;;;;;;;;;;4987966;28;20189;-68
2022/09/29 03:36:45;;;;;;;10.80;8.57;;;;;;;;;;4988340;28;20228;-69
2022/09/29 03:39:11;;;;;;;14.30;9.47;;;;;;;;;;4969285;28;20543;-68
2022/09/29 03:41:38;;;;;;;10.77;8.23;;;;;;;;;;4986009;28;20251;-69
2022/09/29 03:44:05;;;;;;;12.57;8.50;;;;;;;;;;4989095;28;20224;-69
2022/09/29 03:46:32;;;;;;;10.50;7.87;;;;;;;;;;4988270;28;20189;-68
2022/09/29 03:48:58;;;;;;;10.30;6.97;;;;;;;;;;4988831;28;21003;-68
2022/09/29 03:51:25;;;;;;;11.23;7.30;;;;;;;;;;4987078;28;20204;-69
2022/09/29 03:53:52;;;;;;;9.80;7.73;;;;;;;;;;4990482;28;20189;-68
2022/09/29 03:56:19;;;;;;;9.73;7.10;;;;;;;;;;4988238;28;20255;-68
2022/09/29 03:58:46;;;;;;;10.53;7.50;;;;;;;;;;4990171;28;20672;-68
2022/09/29 04:01:15;;;;;;;15.27;8.83;;;;;;;;;;4967333;28;20197;-68
2022/09/29 04:03:42;;;;;;;11.27;8.13;;;;;;;;;;4975452;28;20208;-69
2022/09/29 04:06:09;;;;;;;17.00;8.53;;;;;;;;;;4987628;28;20192;-68
2022/09/29 04:08:36;;;;;;;16.60;7.93;;;;;;;;;;4990124;28;20722;-68
2022/09/29 04:11:03;;;;;;;10.80;7.70;;;;;;;;;;4986710;28;20196;-68
2022/09/29 04:13:29;;;;;;;10.17;7.23;;;;;;;;;;4988010;28;20225;-69
2022/09/29 04:15:57;;;;;;;12.10;8.13;;;;;;;;;;4985519;28;20239;-69
2022/09/29 04:18:24;;;;;;;9.87;7.60;;;;;;;;;;4981411;28;20189;-68
2022/09/29 04:20:51;;;;;;;11.40;7.67;;;;;;;;;;4973102;28;20665;-69
2022/09/29 04:23:17;;;;;;;11.47;8.27;;;;;;;;;;4988591;28;20188;-69
2022/09/29 04:25:44;;;;;;;10.53;6.87;;;;;;;;;;4979222;28;20227;-68
2022/09/29 04:28:12;;;;;;;10.57;7.43;;;;;;;;;;4984451;28;20200;-69
2022/09/29 04:30:38;;;;;;;13.73;6.90;;;;;;;;;;4985362;28;20189;-69
2022/09/29 04:33:05;;;;;;;9.83;7.07;;;;;;;;;;4987325;28;20368;-69
2022/09/29 04:35:32;;;;;;;10.33;6.43;;;;;;;;;;4988280;28;20192;-68
2022/09/29 04:38:03;;;;;;;11.13;7.00;;;;;;;;;;4988445;28;20200;-68
2022/09/29 04:40:29;;;;;;;11.00;7.47;;;;;;;;;;4969853;28;20197;-68
2022/09/29 04:42:57;;;;;;;11.57;8.07;;;;;;;;;;4989190;28;20217;-68
2022/09/29 04:45:24;;;;;;;11.10;8.40;;;;;;;;;;4989965;28;20192;-68
2022/09/29 04:47:51;;;;;;;10.60;7.07;;;;;;;;;;4990003;28;20193;-68
2022/09/29 04:50:18;;;;;;;10.60;7.43;;;;;;;;;;4988977;28;20192;-69
2022/09/29 04:52:45;;;;;;;12.23;7.73;;;;;;;;;;4986208;28;20223;-68
2022/09/29 04:55:11;;;;;;;11.43;8.47;;;;;;;;;;4971898;28;20448;-68
2022/09/29 04:57:38;;;;;;;14.07;10.13;;;;;;;;;;4980727;28;20499;-69
2022/09/29 05:00:06;;;;;;;13.67;9.73;;;;;;;;;;4988078;28;20181;-68
2022/09/29 05:02:33;;;;;;;18.50;12.20;;;;;;;;;;4988470;28;20192;-69
2022/09/29 05:05:00;;;;;;;21.70;13.20;;;;;;;;;;4992090;28;20452;-69
2022/09/29 05:07:27;;;;;;;16.30;11.53;;;;;;;;;;4993161;28;20481;-69
2022/09/29 05:09:54;;;;;;;16.93;11.23;;;;;;;;;;4990090;28;20962;-68
2022/09/29 05:12:20;;;;;;;16.90;11.33;;;;;;;;;;4993196;28;20636;-69
2022/09/29 05:14:47;;;;;;;14.50;10.13;;;;;;;;;;4970647;28;20194;-69
2022/09/29 05:17:14;;;;;;;14.10;10.83;;;;;;;;;;4987827;28;20189;-69
2022/09/29 05:19:41;;;;;;;12.27;9.40;;;;;;;;;;4971080;28;20260;-69
2022/09/29 05:22:08;;;;;;;11.80;9.53;;;;;;;;;;4964544;28;20211;-69
2022/09/29 05:24:35;;;;;;;15.13;9.60;;;;;;;;;;4973979;28;20196;-69
2022/09/29 05:27:01;;;;;;;15.83;9.83;;;;;;;;;;4953458;29;20221;-68
2022/09/29 05:29:28;;;;;;;14.33;9.93;;;;;;;;;;4965657;28;20661;-68
2022/09/29 05:31:55;;;;;;;11.60;9.30;;;;;;;;;;4974542;28;20193;-68
2022/09/29 05:34:22;;;;;;;14.90;10.60;;;;;;;;;;4955345;28;20253;-68
2022/09/29 05:36:48;;;;;;;15.10;9.63;;;;;;;;;;4960433;28;20229;-68
2022/09/29 05:39:16;;;;;;;14.50;10.63;;;;;;;;;;4974019;28;20194;-68
2022/09/29 05:41:43;;;;;;;16.00;11.73;;;;;;;;;;4973490;28;20189;-68
2022/09/29 05:44:09;;;;;;;17.93;11.20;;;;;;;;;;4973365;28;20221;-69
2022/09/29 05:46:36;;;;;;;16.00;10.63;;;;;;;;;;4973684;28;20200;-68
2022/09/29 05:49:03;;;;;;;26.13;17.70;;;;;;;;;;4973142;28;20186;-68
2022/09/29 05:51:30;;;;;;;42.10;25.13;;;;;;;;;;4973738;28;20197;-68
2022/09/29 05:54:14;;;;;;;28.33;18.27;;;;;;;;;;4973159;28;20209;-68
2022/09/29 05:56:41;;;;;;;22.60;13.43;;;;;;;;;;4972412;28;20204;-68
2022/09/29 05:59:11;;;;;;;17.43;11.53;;;;;;;;;;4973513;28;20281;-68
2022/09/29 06:01:37;;;;;;;20.63;12.23;;;;;;;;;;4972450;28;20268;-68
2022/09/29 06:04:04;;;;;;;17.53;12.60;;;;;;;;;;4972894;28;20193;-68
2022/09/29 06:06:31;;;;;;;14.87;11.27;;;;;;;;;;4973607;28;20252;-68
2022/09/29 06:08:58;;;;;;;16.43;11.87;;;;;;;;;;4971977;28;20193;-68
2022/09/29 06:11:28;;;;;;;14.27;10.40;;;;;;;;;;4971930;28;20739;-68
2022/09/29 06:13:55;;;;;;;15.07;10.50;;;;;;;;;;4971435;28;20608;-68
2022/09/29 06:16:22;;;;;;;17.00;10.77;;;;;;;;;;4973185;28;20205;-69
2022/09/29 06:18:49;;;;;;;18.27;9.83;;;;;;;;;;4971830;28;20247;-69
2022/09/29 06:21:17;;;;;;;16.63;10.97;;;;;;;;;;4972257;28;20193;-68
2022/09/29 06:23:44;;;;;;;15.90;11.53;;;;;;;;;;4971480;28;20208;-68
2022/09/29 06:26:14;;;;;;;15.63;11.80;;;;;;;;;;4971528;28;20228;-68
2022/09/29 06:28:47;;;;;;;14.73;9.93;;;;;;;;;;4971418;28;20199;-70
2022/09/29 06:31:14;;;;;;;15.83;11.37;;;;;;;;;;4971636;28;20287;-67
2022/09/29 06:33:42;;;;;;;12.43;10.07;;;;;;;;;;4972809;28;20863;-67
2022/09/29 06:38:58;;;;;;;11.60;8.00;;;;;;;;;;4969977;28;20192;-68
2022/09/29 06:41:26;;;;;;;13.23;8.37;;;;;;;;;;4953761;28;20960;-68
2022/09/29 06:43:53;;;;;;;9.50;7.77;;;;;;;;;;4953352;29;20226;-68
2022/09/29 06:46:21;;;;;;;10.53;7.93;;;;;;;;;;4953305;29;20256;-68
2022/09/29 06:48:47;;;;;;;14.23;8.33;;;;;;;;;;4953252;29;20246;-68
2022/09/29 06:51:14;;;;;;;11.53;8.20;;;;;;;;;;4953002;29;20219;-68
2022/09/29 06:53:41;;;;;;;11.70;8.47;;;;;;;;;;4953069;29;20301;-68
2022/09/29 06:56:08;;;;;;;10.47;7.37;;;;;;;;;;4935790;29;20178;-69
2022/09/29 06:58:34;;;;;;;11.50;7.20;;;;;;;;;;4953252;29;20213;-69
2022/09/29 07:01:01;;;;;;;9.10;7.30;;;;;;;;;;4953162;29;20792;-69
2022/09/29 07:03:29;;;;;;;10.53;7.83;;;;;;;;;;4936290;29;20185;-69
2022/09/29 07:05:56;;;;;;;12.47;8.97;;;;;;;;;;4952637;29;20213;-69
2022/09/29 07:08:43;;;;;;;15.20;9.17;;;;;;;;;;4938695;29;20665;-68
2022/09/29 07:11:09;;;;;;;11.33;8.13;;;;;;;;;;4952620;29;20197;-68
2022/09/29 07:13:36;;;;;;;11.10;8.23;;;;;;;;;;4935607;29;20241;-68
2022/09/29 07:16:09;;;;;;;11.33;8.83;;;;;;;;;;4935305;29;20205;-68
2022/09/29 07:18:37;;;;;;;11.70;7.40;;;;;;;;;;4953013;29;20205;-68
2022/09/29 07:21:04;;;;;;;12.20;8.83;;;;;;;;;;4935243;29;20193;-68
2022/09/29 07:23:31;;;;;;;9.83;6.70;;;;;;;;;;4935690;28;20190;-69
2022/09/29 07:25:58;;;;;;;11.03;7.00;;;;;;;;;;4934500;29;20197;-68
2022/09/29 07:28:25;;;;;;;7.57;5.93;;;;;;;;;;4952345;29;20194;-69
2022/09/29 07:30:59;;;;;;;6.70;5.97;;;;;;;;;;4952404;29;20194;-69
2022/09/29 07:33:38;;;;;;;6.40;5.70;;;;;;;;;;4952639;29;20217;-69
2022/09/29 07:36:05;;;;;;;6.90;5.43;;;;;;;;;;4952171;29;20258;-69
2022/09/29 07:38:33;;;;;;;5.93;5.33;;;;;;;;;;4954268;28;20205;-69
2022/09/29 07:41:01;;;;;;;6.83;6.03;;;;;;;;;;4971550;28;20277;-69
2022/09/29 07:43:28;;;;;;;5.90;5.20;;;;;;;;;;4971390;28;20221;-69
2022/09/29 07:45:55;;;;;;;7.57;6.13;;;;;;;;;;4971386;28;20186;-69
2022/09/29 07:48:22;;;;;;;7.37;5.80;;;;;;;;;;4971585;28;20261;-69
2022/09/29 07:50:59;;;;;;;6.83;5.57;;;;;;;;;;4954659;28;20326;-69
2022/09/29 07:53:26;;;;;;;6.83;6.13;;;;;;;;;;4954281;28;20636;-69
2022/09/29 07:55:53;;;;;;;6.70;6.00;;;;;;;;;;4954013;28;20200;-69
2022/09/29 07:58:20;;;;;;;7.13;5.70;;;;;;;;;;4971148;28;20193;-69
2022/09/29 08:00:52;;;;;;;6.77;5.40;;;;;;;;;;4971103;28;20197;-69
2022/09/29 08:03:19;;;;;;;7.73;6.23;;;;;;;;;;4971891;28;20194;-69
2022/09/29 08:05:45;;;;;;;8.77;7.00;;;;;;;;;;4970564;28;20848;-69
2022/09/29 08:08:12;;;;;;;7.47;6.30;;;;;;;;;;4971374;28;20197;-69
2022/09/29 08:10:39;;;;;;;9.13;6.60;;;;;;;;;;4971051;28;20196;-69
2022/09/29 08:13:18;;;;;;;7.63;5.70;;;;;;;;;;4955869;28;20255;-69
2022/09/29 08:15:44;;;;;;;8.70;5.97;;;;;;;;;;4971170;28;20273;-69
2022/09/29 08:18:11;;;;;;;7.37;6.10;;;;;;;;;;4970850;28;20253;-69
2022/09/29 08:20:38;;;;;;;9.83;6.77;;;;;;;;;;4953540;28;20189;-69
2022/09/29 08:23:05;;;;;;;7.00;6.00;;;;;;;;;;4970987;28;20902;-68
2022/09/29 08:25:34;;;;;;;13.63;6.67;;;;;;;;;;4970920;28;20217;-69
2022/09/29 08:28:01;;;;;;;12.93;7.70;;;;;;;;;;4953693;28;20208;-69
2022/09/29 08:30:28;;;;;;;9.73;6.87;;;;;;;;;;4953754;28;20237;-69
2022/09/29 08:32:55;;;;;;;7.13;5.67;;;;;;;;;;4970829;28;20522;-69
2022/09/29 08:35:22;;;;;;;7.00;5.87;;;;;;;;;;4953269;28;20197;-69
2022/09/29 08:37:49;;;;;;;6.57;5.43;;;;;;;;;;4970447;28;20197;-69
2022/09/29 08:40:16;;;;;;;6.53;5.03;;;;;;;;;;4970945;28;20186;-69
2022/09/29 08:42:47;;;;;;;7.73;5.87;;;;;;;;;;4970655;28;20236;-69
2022/09/29 08:45:23;;;;;;;7.50;6.13;;;;;;;;;;4970604;28;20188;-69
2022/09/29 08:47:50;;;;;;;7.53;5.30;;;;;;;;;;4970483;28;20192;-69
2022/09/29 08:50:28;;;;;;;7.67;6.00;;;;;;;;;;4969397;28;20268;-69
2022/09/29 08:52:56;;;;;;;7.47;5.97;;;;;;;;;;4969207;28;20698;-68
2022/09/29 08:55:25;;;;;;;8.17;5.97;;;;;;;;;;4969218;28;20616;-69
2022/09/29 08:57:54;;;;;;;8.17;5.90;;;;;;;;;;4969457;28;20186;-69
2022/09/29 09:00:21;;;;;;;9.50;5.93;;;;;;;;;;4969615;28;20197;-69
2022/09/29 09:03:03;;;;;;;8.73;6.23;;;;;;;;;;4969266;28;20193;-69
2022/09/29 09:05:34;;;;;;;12.53;7.00;;;;;;;;;;4968934;28;20193;-68
2022/09/29 09:08:02;;;;;;;10.57;7.23;;;;;;;;;;4970422;28;20201;-69
2022/09/29 09:10:39;;;;;;;11.93;7.67;;;;;;;;;;4969320;28;20194;-69
2022/09/29 09:13:10;;;;;;;13.10;8.00;;;;;;;;;;4970128;28;20203;-69
2022/09/29 09:15:46;;;;;;;11.17;7.43;;;;;;;;;;4969268;28;20208;-69
2022/09/29 09:18:13;;;;;;;9.30;6.77;;;;;;;;;;4970439;28;20265;-69
2022/09/29 09:20:43;;;;;;;9.17;7.30;;;;;;;;;;4970460;28;20213;-69
2022/09/29 09:23:20;;;;;;;9.03;6.60;;;;;;;;;;4969292;28;20256;-68
2022/09/29 09:25:57;;;;;;;9.40;6.57;;;;;;;;;;4968924;28;20201;-69
2022/09/29 09:28:31;;;;;;;9.77;6.70;;;;;;;;;;4969018;28;20200;-69
2022/09/29 09:31:08;;;;;;;8.47;5.83;;;;;;;;;;4969032;28;20256;-69
2022/09/29 09:33:39;;;;;;;8.73;6.10;;;;;;;;;;4969267;28;20229;-69
2022/09/29 09:36:13;;;;;;;8.07;5.80;;;;;;;;;;4968708;28;20189;-69
2022/09/29 09:38:50;;;;;;;7.87;5.07;;;;;;;;;;4954318;28;20601;-69
2022/09/29 09:41:18;;;;;;;7.93;5.67;;;;;;;;;;4952909;28;20220;-69
2022/09/29 09:43:45;;;;;;;6.63;5.47;;;;;;;;;;4952598;28;20649;-68
2022/09/29 09:46:21;;;;;;;6.20;5.10;;;;;;;;;;4953137;28;20221;-69
2022/09/29 09:48:51;;;;;;;7.23;5.77;;;;;;;;;;4972187;28;20592;-69
2022/09/29 09:51:29;;;;;;;7.13;4.80;;;;;;;;;;4973716;28;20737;-69
2022/09/29 09:53:57;;;;;;;6.80;4.97;;;;;;;;;;4956416;28;20209;-69
2022/09/29 09:56:48;;;;;;;6.67;5.10;;;;;;;;;;4956091;28;20656;-69
2022/09/29 09:59:18;;;;;;;8.17;5.03;;;;;;;;;;4956296;28;20737;-69
2022/09/29 10:01:45;;;;;;;7.57;4.80;;;;;;;;;;4956001;28;20200;-69
2022/09/29 10:04:11;;;;;;;5.60;4.90;;;;;;;;;;4973356;28;21030;-69
2022/09/29 10:06:38;;;;;;;7.17;4.67;;;;;;;;;;4973380;28;20176;-69
2022/09/29 10:09:05;;;;;;;5.70;4.53;;;;;;;;;;4956165;28;20193;-68
2022/09/29 10:11:32;;;;;;;6.03;4.70;;;;;;;;;;4973290;28;20198;-69
2022/09/29 10:14:08;;;;;;;6.73;4.67;;;;;;;;;;4939940;28;20218;-69
2022/09/29 10:16:45;;;;;;;7.90;5.20;;;;;;;;;;4973210;28;20685;-69
2022/09/29 10:19:12;;;;;;;5.23;4.60;;;;;;;;;;4973123;28;20204;-69
2022/09/29 10:21:39;;;;;;;6.37;4.90;;;;;;;;;;4973118;28;20190;-69
2022/09/29 10:24:32;;;;;;;7.77;5.83;;;;;;;;;;4955998;28;20190;-69
2022/09/29 10:26:59;;;;;;;5.73;4.80;;;;;;;;;;4952234;28;20229;-69
2022/09/29 10:29:36;;;;;;;7.23;4.90;;;;;;;;;;4955427;28;20201;-69
2022/09/29 10:32:03;;;;;;;6.50;5.07;;;;;;;;;;4955772;28;20190;-69
2022/09/29 10:34:32;;;;;;;7.23;5.37;;;;;;;;;;4972686;28;20308;-69
2022/09/29 10:37:06;;;;;;;5.87;5.00;;;;;;;;;;4948368;29;20179;-69
2022/09/29 10:39:41;;;;;;;6.50;5.00;;;;;;;;;;4951270;29;20284;-68
2022/09/29 10:42:14;;;;;;;6.13;5.10;;;;;;;;;;4936295;29;20194;-69
2022/09/29 10:44:41;;;;;;;6.30;4.90;;;;;;;;;;4953261;29;20194;-69
2022/09/29 10:47:12;;;;;;;5.43;4.40;;;;;;;;;;4935838;29;20190;-69
2022/09/29 10:49:39;;;;;;;6.77;4.77;;;;;;;;;;4953191;29;20183;-69
2022/09/29 10:52:06;;;;;;;5.47;4.20;;;;;;;;;;4953115;29;20190;-69
2022/09/29 10:54:33;;;;;;;7.17;5.07;;;;;;;;;;4936349;29;20695;-68
2022/09/29 10:57:10;;;;;;;5.27;4.40;;;;;;;;;;4952530;29;20956;-69
2022/09/29 10:59:49;;;;;;;7.33;4.43;;;;;;;;;;4936087;29;20531;-69
2022/09/29 11:02:28;;;;;;;8.63;4.20;;;;;;;;;;4936166;29;20229;-69
2022/09/29 11:04:57;;;;;;;5.80;4.23;;;;;;;;;;4935869;29;20225;-69
2022/09/29 11:07:23;;;;;;;4.83;4.23;;;;;;;;;;4952726;29;20205;-69
2022/09/29 11:09:53;;;;;;;6.37;4.87;;;;;;;;;;4953142;29;20196;-69
2022/09/29 11:12:26;;;;;;;7.43;4.77;;;;;;;;;;4936414;29;20201;-68
2022/09/29 11:14:53;;;;;;;5.23;4.50;;;;;;;;;;4952858;29;20356;-69
2022/09/29 11:17:27;;;;;;;4.70;4.20;;;;;;;;;;4935428;29;20222;-69
2022/09/29 11:19:55;;;;;;;6.30;4.63;;;;;;;;;;4952472;29;20696;-69
2022/09/29 11:22:39;;;;;;;6.27;4.30;;;;;;;;;;4952472;29;20197;-69
2022/09/29 11:25:15;;;;;;;6.53;4.73;;;;;;;;;;4952517;29;20237;-69
2022/09/29 11:27:42;;;;;;;5.87;4.50;;;;;;;;;;4952514;29;20198;-69
2022/09/29 11:30:14;;;;;;;6.10;4.10;;;;;;;;;;4952513;29;20245;-69
2022/09/29 11:33:03;;;;;;;5.73;3.90;;;;;;;;;;4935444;29;20202;-68
2022/09/29 11:35:51;;;;;;;5.87;4.30;;;;;;;;;;4935691;29;20713;-69
2022/09/29 11:38:19;;;;;;;5.30;4.30;;;;;;;;;;4949486;28;20205;-69
2022/09/29 11:41:04;;;;;;;5.40;3.93;;;;;;;;;;4971559;28;20196;-69
2022/09/29 11:43:46;;;;;;;4.23;3.60;;;;;;;;;;4971196;28;20276;-69
2022/09/29 11:46:33;;;;;;;5.30;3.17;;;;;;;;;;4971776;28;20213;-69
2022/09/29 11:49:02;;;;;;;4.90;3.30;;;;;;;;;;4971076;28;20276;-69
2022/09/29 11:51:32;;;;;;;4.53;3.40;;;;;;;;;;4971566;28;20197;-69
2022/09/29 11:54:06;;;;;;;3.90;3.00;;;;;;;;;;4970150;28;20264;-69
2022/09/29 11:56:54;;;;;;;4.00;3.27;;;;;;;;;;4970097;28;20196;-69
2022/09/29 11:59:21;;;;;;;4.20;3.00;;;;;;;;;;4971041;28;20209;-69
2022/09/29 12:02:01;;;;;;;2.97;2.70;;;;;;;;;;4971171;28;20554;-69
2022/09/29 12:04:38;;;;;;;3.30;3.00;;;;;;;;;;4969594;28;20178;-69
2022/09/29 12:07:16;;;;;;;3.63;3.03;;;;;;;;;;4969914;28;20244;-69
2022/09/29 12:09:43;;;;;;;4.33;2.93;;;;;;;;;;4970264;28;20186;-69
2022/09/29 12:12:25;;;;;;;3.90;2.90;;;;;;;;;;4970645;28;20189;-69
2022/09/29 12:15:11;;;;;;;4.87;3.10;;;;;;;;;;4971221;28;20220;-69
2022/09/29 12:17:39;;;;;;;3.70;3.17;;;;;;;;;;4970997;28;20221;-69
2022/09/29 12:20:11;;;;;;;4.53;3.00;;;;;;;;;;4969560;28;20194;-69
2022/09/29 12:22:38;;;;;;;2.77;2.33;;;;;;;;;;4969693;28;20231;-69
2022/09/29 12:25:12;;;;;;;3.03;2.40;;;;;;;;;;4969570;28;20204;-69
2022/09/29 12:27:39;;;;;;;3.37;2.10;;;;;;;;;;4969962;28;20197;-69
2022/09/29 12:30:09;;;;;;;2.63;2.30;;;;;;;;;;4970630;28;20193;-69
2022/09/29 12:32:40;;;;;;;2.23;1.83;;;;;;;;;;4970877;28;20193;-69
2022/09/29 12:35:14;;;;;;;2.53;1.90;;;;;;;;;;4969159;28;20935;-69
2022/09/29 12:37:48;;;;;;;2.23;2.00;;;;;;;;;;4956631;28;20210;-69
2022/09/29 12:40:15;;;;;;;3.27;1.80;;;;;;;;;;4951572;29;20194;-69
2022/09/29 12:43:01;;;;;;;2.30;2.10;;;;;;;;;;4951246;29;20218;-68
2022/09/29 12:45:34;;;;;;;3.67;1.90;;;;;;;;;;4951406;29;20550;-69
2022/09/29 12:48:01;;;;;;;1.90;1.70;;;;;;;;;;4951354;29;20213;-69
2022/09/29 12:50:32;;;;;;;2.20;1.87;;;;;;;;;;4951028;29;20562;-69
2022/09/29 12:53:05;;;;;;;2.97;1.90;;;;;;;;;;4934497;29;20201;-69
2022/09/29 12:55:45;;;;;;;1.87;1.63;;;;;;;;;;4934866;29;20206;-69
2022/09/29 12:58:15;;;;;;;2.70;1.83;;;;;;;;;;4918562;29;20280;-69
2022/09/29 13:00:43;;;;;;;2.10;1.67;;;;;;;;;;4934564;29;20183;-69
2022/09/29 13:03:42;;;;;;;2.40;1.90;;;;;;;;;;4933989;29;20561;-69
2022/09/29 13:06:28;;;;;;;2.53;1.77;;;;;;;;;;4909137;29;20228;-69
2022/09/29 13:09:17;;;;;;;2.73;1.87;;;;;;;;;;4933977;29;20598;-69
2022/09/29 13:11:59;;;;;;;2.90;1.80;;;;;;;;;;4951071;29;20392;-69
2022/09/29 13:14:26;;;;;;;3.10;2.00;;;;;;;;;;4950916;29;20285;-69
2022/09/29 13:16:58;;;;;;;3.43;1.97;;;;;;;;;;4951274;29;20191;-69
2022/09/29 13:19:30;;;;;;;1.60;1.50;;;;;;;;;;4933600;29;20973;-69
2022/09/29 13:22:29;;;;;;;3.10;1.60;;;;;;;;;;4951233;28;20585;-69
2022/09/29 13:24:59;;;;;;;2.47;1.50;;;;;;;;;;4937749;29;20281;-69
2022/09/29 13:27:33;;;;;;;2.20;1.63;;;;;;;;;;4955014;29;20344;-69
2022/09/29 13:30:05;;;;;;;3.20;1.73;;;;;;;;;;4938027;29;20229;-69
2022/09/29 13:32:32;;;;;;;2.80;1.90;;;;;;;;;;4937655;29;20563;-69
2022/09/29 13:34:59;;;;;;;2.43;1.73;;;;;;;;;;4954280;29;20218;-69
2022/09/29 13:37:27;;;;;;;2.13;1.80;;;;;;;;;;4955518;28;20213;-69
2022/09/29 13:40:04;;;;;;;2.03;1.60;;;;;;;;;;4972677;28;20200;-70
2022/09/29 13:42:41;;;;;;;3.13;1.90;;;;;;;;;;4973019;28;20308;-69
2022/09/29 13:45:15;;;;;;;2.13;1.60;;;;;;;;;;4972331;28;20198;-69
2022/09/29 13:47:45;;;;;;;2.20;1.90;;;;;;;;;;4939406;28;20197;-69
2022/09/29 13:50:31;;;;;;;2.07;1.63;;;;;;;;;;4959591;28;20270;-69
2022/09/29 13:53:17;;;;;;;2.60;1.90;;;;;;;;;;4969308;28;20772;-69
2022/09/29 13:55:53;;;;;;;2.33;1.77;;;;;;;;;;4955416;28;20230;-69
2022/09/29 13:58:23;;;;;;;3.10;2.00;;;;;;;;;;4973470;28;20189;-69
2022/09/29 14:00:50;;;;;;;2.97;1.80;;;;;;;;;;4958607;28;20284;-69
2022/09/29 14:03:21;;;;;;;3.40;1.60;;;;;;;;;;4966639;28;20573;-68
2022/09/29 14:05:52;;;;;;;2.33;1.87;;;;;;;;;;4968806;28;20194;-68
2022/09/29 14:08:22;;;;;;;4.17;2.23;;;;;;;;;;4944907;28;20185;-68
2022/09/29 14:11:07;;;;;;;3.27;1.90;;;;;;;;;;4958346;28;20190;-69
2022/09/29 14:13:53;;;;;;;4.87;2.47;;;;;;;;;;4955286;28;20222;-69
2022/09/29 14:16:27;;;;;;;3.40;2.47;;;;;;;;;;4969595;28;20232;-69
2022/09/29 14:19:15;;;;;;;4.93;2.83;;;;;;;;;;4957220;28;20227;-69
2022/09/29 14:21:45;;;;;;;2.17;1.83;;;;;;;;;;4927981;28;20218;-69
2022/09/29 14:24:30;;;;;;;4.57;1.80;;;;;;;;;;4975096;28;20229;-69
2022/09/29 14:27:13;;;;;;;2.80;1.80;;;;;;;;;;4974780;28;20913;-69
2022/09/29 14:29:40;;;;;;;2.47;1.80;;;;;;;;;;4974201;28;20193;-69
2022/09/29 14:32:12;;;;;;;3.20;2.10;;;;;;;;;;4957273;28;20232;-69
2022/09/29 14:34:38;;;;;;;2.53;1.90;;;;;;;;;;4957169;28;20217;-69
2022/09/29 14:37:06;;;;;;;5.17;2.00;;;;;;;;;;4960553;28;20186;-69
2022/09/29 14:39:32;;;;;;;5.67;2.23;;;;;;;;;;4975122;28;20584;-69
2022/09/29 14:41:59;;;;;;;2.50;1.97;;;;;;;;;;4957362;28;20182;-69
2022/09/29 14:51:56;;;;;;;4.43;2.17;;;;;;;;;;4974271;28;20605;-69
2022/09/29 14:53:16;;;;;;;3.47;2.40;;;;;;;;;;4959559;28;20212;-69
2022/09/29 14:55:45;;;;;;;4.00;2.00;;;;;;;;;;4959767;28;20264;-68
2022/09/29 14:58:16;;;;;;;2.80;2.03;;;;;;;;;;4973936;28;20189;-69
2022/09/29 15:00:45;;;;;;;4.73;2.20;;;;;;;;;;4974038;28;20220;-69
2022/09/29 15:03:33;;;;;;;4.13;2.50;;;;;;;;;;4973179;28;20217;-68
2022/09/29 15:06:19;;;;;;;2.83;2.23;;;;;;;;;;4973121;28;20190;-69